Time;durP1;ratioP1;P1;durP2;ratioP2;P2;SDS_P1;SDS_P2;PMS_P1;PMS_P2;Temp;Humidity;BMP_temperature;BMP_pressure;BME280_temperature;BME280_humidity;BME280_pressure;Samples;Min_cycle;Max_cycle;Signal;HPM_P1;HPM_P2
2023/02/26 00:02:08;;;;;;;0.10;0.10;;;;;;;-1.54;85.87;100332.81;4974166;28;20417;-80
2023/02/26 00:04:34;;;;;;;0.00;0.00;;;;;;;-1.43;86.35;100334.69;4974015;28;20296;-78
2023/02/26 00:06:59;;;;;;;0.00;0.00;;;;;;;-1.32;86.95;100338.38;4973159;28;20499;-78
2023/02/26 00:09:25;;;;;;;0.00;0.00;;;;;;;-1.35;86.49;100336.97;4973868;28;20328;-81
2023/02/26 00:11:50;;;;;;;0.00;0.00;;;;;;;-1.47;86.02;100344.22;4974071;28;20186;-82
2023/02/26 00:14:16;;;;;;;0.00;0.00;;;;;;;-1.33;86.58;100356.31;4973912;28;20185;-77
2023/02/26 00:16:49;;;;;;;0.00;0.00;;;;;;;-1.29;86.69;100349.44;4972313;28;20178;-81
2023/02/26 00:19:14;;;;;;;0.73;0.43;;;;;;;-1.28;86.13;100359.13;4973410;28;20430;-83
2023/02/26 00:21:40;;;;;;;0.23;0.23;;;;;;;-1.17;86.53;100364.66;4973848;28;20420;-70
2023/02/26 00:24:05;;;;;;;0.00;0.00;;;;;;;-1.12;85.67;100362.94;4974516;28;20193;-72
2023/02/26 00:26:32;;;;;;;0.00;0.00;;;;;;;-1.14;86.39;100361.53;4974868;28;20186;-72
2023/02/26 00:28:58;;;;;;;0.00;0.00;;;;;;;-1.08;86.21;100374.00;4974059;28;20204;-70
2023/02/26 00:31:24;;;;;;;0.00;0.00;;;;;;;-1.03;86.55;100372.22;4973696;28;20902;-71
2023/02/26 00:33:54;;;;;;;0.43;0.43;;;;;;;-1.02;86.04;100378.38;4974120;28;20182;-71
2023/02/26 00:36:43;;;;;;;0.20;0.10;;;;;;;-1.11;85.89;100390.56;4974128;28;20190;-70
2023/02/26 00:39:36;;;;;;;0.20;0.10;;;;;;;-1.08;86.06;100380.16;4973789;28;20918;-70
2023/02/26 00:42:02;;;;;;;0.23;0.23;;;;;;;-1.08;87.20;100395.44;4973819;28;20500;-70
2023/02/26 00:44:28;;;;;;;0.00;0.00;;;;;;;-1.12;86.91;100397.78;4973586;28;20502;-73
2023/02/26 00:47:19;;;;;;;0.00;0.00;;;;;;;-1.09;87.75;100399.16;4973231;28;20177;-70
2023/02/26 00:50:12;;;;;;;0.00;0.00;;;;;;;-1.08;88.33;100395.44;4973488;28;20182;-70
2023/02/26 00:52:57;;;;;;;0.00;0.00;;;;;;;-1.10;88.40;100397.53;4973363;28;20413;-70
2023/02/26 00:55:22;;;;;;;0.10;0.10;;;;;;;-1.26;88.46;100407.13;4973271;28;20478;-70
2023/02/26 00:57:48;;;;;;;0.00;0.00;;;;;;;-1.21;88.62;100412.56;4973262;28;20449;-70
2023/02/26 01:00:14;;;;;;;0.00;0.00;;;;;;;-1.29;89.29;100415.63;4973161;28;20688;-70
2023/02/26 01:02:40;;;;;;;0.00;0.00;;;;;;;-1.16;89.73;100419.91;4973173;28;20174;-70
2023/02/26 01:05:06;;;;;;;5.83;3.20;;;;;;;-1.31;89.71;100418.53;4972755;28;20492;-71
2023/02/26 01:07:53;;;;;;;0.00;0.00;;;;;;;-1.21;89.89;100423.31;4972967;28;20201;-70
2023/02/26 01:10:19;;;;;;;0.27;0.27;;;;;;;-1.28;90.29;100428.78;4972829;28;20424;-70
2023/02/26 01:12:45;;;;;;;0.10;0.10;;;;;;;-1.33;90.87;100423.31;4972857;28;20509;-71
2023/02/26 01:15:11;;;;;;;0.00;0.00;;;;;;;-1.27;90.73;100425.06;4972713;28;20932;-71
2023/02/26 01:17:49;;;;;;;0.00;0.00;;;;;;;-1.35;91.08;100428.09;4972623;28;20193;-69
2023/02/26 01:20:19;;;;;;;0.00;0.00;;;;;;;-1.40;92.03;100427.16;4972890;28;20414;-70
2023/02/26 01:22:51;;;;;;;0.83;0.33;;;;;;;-1.43;91.77;100424.97;4972740;28;20429;-72
2023/02/26 01:25:29;;;;;;;0.83;0.60;;;;;;;-1.45;92.44;100424.34;4973011;28;20460;-71
2023/02/26 01:27:57;;;;;;;0.00;0.00;;;;;;;-1.45;92.69;100430.53;4972752;28;20441;-70
2023/02/26 01:30:24;;;;;;;0.33;0.33;;;;;;;-1.54;93.14;100437.28;4973131;28;20420;-70
2023/02/26 01:33:07;;;;;;;0.00;0.00;;;;;;;-1.52;93.75;100433.31;4972892;28;20422;-70
2023/02/26 01:35:46;;;;;;;0.07;0.07;;;;;;;-1.56;94.31;100426.00;4971151;28;20859;-71
2023/02/26 01:38:49;;;;;;;6.63;0.67;;;;;;;-1.54;94.56;100445.31;4972720;28;20429;-70
2023/02/26 01:41:45;;;;;;;0.20;0.20;;;;;;;-1.54;95.00;100435.41;4972509;28;20424;-70
2023/02/26 01:44:32;;;;;;;0.87;0.50;;;;;;;-1.62;95.70;100438.44;4971076;28;20829;-71
2023/02/26 01:47:26;;;;;;;6.13;1.23;;;;;;;-1.65;96.22;100440.75;4972256;28;20417;-70
2023/02/26 01:49:52;;;;;;;0.50;0.40;;;;;;;-1.67;96.08;100446.34;4971075;28;20484;-70
2023/02/26 01:52:48;;;;;;;0.13;0.13;;;;;;;-1.67;96.69;100448.22;4972421;28;20410;-70
2023/02/26 01:55:15;;;;;;;0.13;0.13;;;;;;;-1.70;96.76;100446.81;4972075;28;20182;-70
2023/02/26 01:57:41;;;;;;;0.00;0.00;;;;;;;-1.68;97.64;100454.63;4972226;28;20428;-74
2023/02/26 02:00:08;;;;;;;0.30;0.30;;;;;;;-1.73;97.86;100454.50;4972207;28;20425;-74
2023/02/26 02:02:33;;;;;;;0.40;0.40;;;;;;;-1.75;97.91;100468.09;4972076;28;20210;-70
2023/02/26 02:05:05;;;;;;;2.43;0.40;;;;;;;-1.74;98.46;100474.28;4972048;28;20488;-71
2023/02/26 02:07:31;;;;;;;0.30;0.30;;;;;;;-1.74;98.18;100474.28;4972523;28;20517;-70
2023/02/26 02:09:57;;;;;;;1.07;0.30;;;;;;;-1.76;98.81;100471.81;4971908;28;20417;-70
2023/02/26 02:12:37;;;;;;;0.13;0.00;;;;;;;-1.76;99.02;100477.19;4972112;28;20181;-70
2023/02/26 02:15:31;;;;;;;1.07;0.53;;;;;;;-1.76;99.00;100482.53;4972021;28;20657;-69
2023/02/26 02:18:08;;;;;;;0.30;0.10;;;;;;;-1.76;99.81;100479.03;4972078;28;20417;-70
2023/02/26 02:20:55;;;;;;;0.17;0.17;;;;;;;-1.76;100.00;100487.06;4970830;28;20416;-70
2023/02/26 02:23:26;;;;;;;0.37;0.20;;;;;;;-1.78;100.00;100486.50;4972015;28;20967;-71
2023/02/26 02:26:25;;;;;;;0.13;0.13;;;;;;;-1.76;100.00;100495.09;4972170;28;20473;-70
2023/02/26 02:29:05;;;;;;;0.00;0.00;;;;;;;-1.75;100.00;100488.72;4971961;28;20940;-70
2023/02/26 02:31:35;;;;;;;0.13;0.13;;;;;;;-1.77;100.00;100493.47;4978018;28;20824;-70
2023/02/26 02:34:14;;;;;;;0.00;0.00;;;;;;;-1.78;100.00;100498.03;4978356;28;20433;-70
2023/02/26 02:36:53;;;;;;;0.97;0.57;;;;;;;-1.76;100.00;100500.47;4978249;28;20429;-69
2023/02/26 02:39:32;;;;;;;0.00;0.00;;;;;;;-1.78;100.00;100500.69;4978450;28;20897;-70
2023/02/26 02:42:03;;;;;;;0.10;0.10;;;;;;;-1.78;100.00;100503.38;4978211;28;20478;-72
2023/02/26 02:44:34;;;;;;;1.40;0.47;;;;;;;-1.83;100.00;100505.94;4978163;28;20473;-71
2023/02/26 02:47:04;;;;;;;1.17;0.83;;;;;;;-1.85;100.00;100514.19;4978066;28;20417;-71
2023/02/26 02:50:01;;;;;;;0.23;0.23;;;;;;;-1.84;100.00;100517.69;4978083;28;20569;-70
2023/02/26 02:52:57;;;;;;;0.00;0.00;;;;;;;-1.85;100.00;100518.72;4970211;28;20444;-70
2023/02/26 02:55:27;;;;;;;0.47;0.47;;;;;;;-1.85;100.00;100524.91;4977609;28;20692;-76
2023/02/26 02:58:03;;;;;;;0.27;0.03;;;;;;;-1.83;100.00;100524.66;4977809;28;20986;-75
2023/02/26 03:00:33;;;;;;;0.00;0.00;;;;;;;-1.81;100.00;100525.25;4978356;28;20878;-72
2023/02/26 03:03:16;;;;;;;4.07;0.40;;;;;;;-1.80;100.00;100533.06;4977813;28;20504;-78
2023/02/26 03:05:42;;;;;;;0.00;0.00;;;;;;;-1.72;100.00;100539.97;4977920;28;20464;-79
2023/02/26 03:08:14;;;;;;;0.00;0.00;;;;;;;-1.75;100.00;100534.22;4977864;28;20414;-80
2023/02/26 03:10:41;;;;;;;0.00;0.00;;;;;;;-1.74;100.00;100533.19;4977997;28;20228;-80
2023/02/26 03:13:14;;;;;;;0.00;0.00;;;;;;;-1.78;100.00;100534.69;4977509;28;20828;-80
2023/02/26 03:15:53;;;;;;;0.00;0.00;;;;;;;-1.74;100.00;100531.31;4977652;28;20443;-80
2023/02/26 03:18:46;;;;;;;0.23;0.23;;;;;;;-1.72;100.00;100533.78;4977636;28;20936;-80
2023/02/26 03:21:36;;;;;;;0.00;0.00;;;;;;;-1.64;100.00;100547.66;4977869;28;20421;-80
2023/02/26 03:24:21;;;;;;;0.00;0.00;;;;;;;-1.67;100.00;100545.44;4977421;28;20465;-76
2023/02/26 03:27:00;;;;;;;0.40;0.40;;;;;;;-1.58;100.00;100556.66;4977435;28;20418;-81
2023/02/26 03:29:31;;;;;;;0.00;0.00;;;;;;;-1.61;100.00;100552.56;4977520;28;20425;-77
2023/02/26 03:32:03;;;;;;;0.00;0.00;;;;;;;-1.45;100.00;100559.13;4977465;28;20453;-76
2023/02/26 03:34:42;;;;;;;0.00;0.00;;;;;;;-1.46;100.00;100554.00;4977270;28;20417;-79
2023/02/26 03:37:25;;;;;;;0.30;0.30;;;;;;;-1.56;100.00;100570.63;4977599;28;20421;-80
2023/02/26 03:39:54;;;;;;;0.00;0.00;;;;;;;-1.61;100.00;100555.22;4977678;28;20435;-79
2023/02/26 03:42:28;;;;;;;0.00;0.00;;;;;;;-1.57;100.00;100566.34;4973849;28;20421;-78
2023/02/26 03:44:58;;;;;;;0.00;0.00;;;;;;;-1.63;100.00;100575.25;4974215;28;20511;-78
2023/02/26 03:47:25;;;;;;;0.00;0.00;;;;;;;-1.54;100.00;100571.22;4974084;28;20464;-80
2023/02/26 03:50:04;;;;;;;0.10;0.10;;;;;;;-1.64;100.00;100579.81;4974352;28;20422;-77
2023/02/26 03:52:34;;;;;;;0.00;0.00;;;;;;;-1.57;100.00;100583.22;4974550;28;20496;-80
2023/02/26 03:55:03;;;;;;;0.00;0.00;;;;;;;-1.58;100.00;100583.44;4972768;28;20795;-70
2023/02/26 03:57:28;;;;;;;0.00;0.00;;;;;;;-1.58;100.00;100586.94;4974130;28;20421;-77
2023/02/26 03:59:55;;;;;;;0.10;0.10;;;;;;;-1.62;100.00;100596.47;4974005;28;20421;-80
2023/02/26 04:02:47;;;;;;;0.10;0.10;;;;;;;-1.64;100.00;100592.38;4972747;28;20458;-79
2023/02/26 04:05:18;;;;;;;0.00;0.00;;;;;;;-1.60;100.00;100594.38;4973720;28;20524;-79
2023/02/26 04:07:45;;;;;;;0.30;0.30;;;;;;;-1.62;100.00;100603.69;4973943;28;20428;-79
2023/02/26 04:10:15;;;;;;;0.00;0.00;;;;;;;-1.58;100.00;100600.34;4973608;28;20425;-77
2023/02/26 04:12:41;;;;;;;0.73;0.20;;;;;;;-1.62;100.00;100609.03;4973797;28;20430;-79
2023/02/26 04:15:07;;;;;;;0.00;0.00;;;;;;;-1.60;100.00;100618.47;4973608;28;20422;-77
2023/02/26 04:17:32;;;;;;;0.00;0.00;;;;;;;-1.56;100.00;100618.84;4973597;28;20501;-80
2023/02/26 04:19:57;;;;;;;0.23;0.23;;;;;;;-1.56;100.00;100617.00;4973704;28;20177;-79
2023/02/26 04:22:23;;;;;;;0.10;0.10;;;;;;;-1.56;100.00;100626.91;4973550;28;20185;-76
2023/02/26 04:24:48;;;;;;;0.00;0.00;;;;;;;-1.52;100.00;100636.09;4973381;28;20741;-79
2023/02/26 04:27:13;;;;;;;0.00;0.00;;;;;;;-1.59;100.00;100627.31;4973475;28;20182;-76
2023/02/26 04:29:39;;;;;;;1.60;0.00;;;;;;;-1.57;100.00;100638.66;4973506;28;20189;-80
2023/02/26 04:32:04;;;;;;;0.10;0.10;;;;;;;-1.54;100.00;100638.19;4973424;28;20182;-78
2023/02/26 04:34:29;;;;;;;0.00;0.00;;;;;;;-1.55;100.00;100639.25;4973182;28;20202;-75
2023/02/26 04:36:55;;;;;;;0.67;0.67;;;;;;;-1.57;100.00;100650.19;4973431;28;20180;-79
2023/02/26 04:39:20;;;;;;;0.00;0.00;;;;;;;-1.53;100.00;100643.31;4973236;28;20171;-78
2023/02/26 04:41:45;;;;;;;2.70;0.60;;;;;;;-1.53;100.00;100655.91;4973357;28;20188;-76
2023/02/26 04:44:11;;;;;;;0.43;0.20;;;;;;;-1.57;100.00;100660.91;4971815;28;20201;-79
2023/02/26 04:46:36;;;;;;;0.20;0.10;;;;;;;-1.52;100.00;100653.00;4953650;28;20183;-80
2023/02/26 04:49:02;;;;;;;0.20;0.20;;;;;;;-1.52;100.00;100662.91;4953658;28;20175;-80
2023/02/26 04:51:27;;;;;;;6.60;0.20;;;;;;;-1.50;100.00;100666.97;4953840;28;20233;-80
2023/02/26 04:53:52;;;;;;;0.00;0.00;;;;;;;-1.52;100.00;100663.72;4953331;28;20396;-79
2023/02/26 04:56:18;;;;;;;0.20;0.20;;;;;;;-1.52;100.00;100668.25;4953724;28;20186;-77
2023/02/26 04:58:43;;;;;;;0.00;0.00;;;;;;;-1.55;100.00;100671.38;4953728;28;20536;-79
2023/02/26 05:01:08;;;;;;;1.80;0.60;;;;;;;-1.54;100.00;100673.84;4953673;28;20532;-77
2023/02/26 05:03:33;;;;;;;0.47;0.30;;;;;;;-1.54;100.00;100673.03;4953770;28;20175;-78
2023/02/26 05:05:59;;;;;;;4.03;0.57;;;;;;;-1.53;100.00;100671.97;4953307;28;20341;-75
2023/02/26 05:08:24;;;;;;;0.47;0.47;;;;;;;-1.52;99.65;100673.59;4953797;28;20226;-79
2023/02/26 05:10:51;;;;;;;4.37;0.73;;;;;;;-1.58;100.00;100677.19;4953485;28;20256;-78
2023/02/26 05:13:17;;;;;;;0.00;0.00;;;;;;;-1.57;99.85;100676.16;4953365;28;20194;-76
2023/02/26 05:15:43;;;;;;;0.23;0.10;;;;;;;-1.57;99.97;100687.69;4953419;28;20794;-79
2023/02/26 05:18:08;;;;;;;3.07;0.83;;;;;;;-1.57;99.77;100676.16;4953379;28;20430;-81
2023/02/26 05:20:34;;;;;;;0.33;0.33;;;;;;;-1.56;99.31;100699.22;4953294;28;20193;-77
2023/02/26 05:22:59;;;;;;;1.20;0.53;;;;;;;-1.57;99.60;100694.91;4953079;28;20261;-78
2023/02/26 05:25:24;;;;;;;0.30;0.30;;;;;;;-1.58;99.18;100693.28;4952873;28;20225;-77
2023/02/26 05:27:49;;;;;;;0.00;0.00;;;;;;;-1.53;99.21;100704.94;4953218;28;20187;-79
2023/02/26 05:30:15;;;;;;;0.93;0.93;;;;;;;-1.54;98.60;100705.16;4953179;28;20179;-79
2023/02/26 05:32:42;;;;;;;0.53;0.53;;;;;;;-1.55;98.22;100706.22;4952989;29;20658;-77
2023/02/26 05:35:09;;;;;;;0.00;0.00;;;;;;;-1.55;97.77;100707.03;4952822;28;20190;-78
2023/02/26 05:37:34;;;;;;;0.50;0.03;;;;;;;-1.55;97.80;100709.72;4952818;28;20501;-76
2023/02/26 05:40:00;;;;;;;1.50;0.50;;;;;;;-1.52;97.53;100719.97;4953024;28;20605;-77
2023/02/26 05:42:25;;;;;;;0.57;0.57;;;;;;;-1.52;97.31;100719.97;4953168;28;20177;-79
2023/02/26 05:44:51;;;;;;;0.00;0.00;;;;;;;-1.53;96.42;100720.19;4952793;28;20710;-73
2023/02/26 05:47:16;;;;;;;0.10;0.10;;;;;;;-1.53;96.07;100728.22;4952709;28;20175;-79
2023/02/26 05:49:42;;;;;;;0.10;0.10;;;;;;;-1.54;96.12;100731.97;4953291;28;20638;-77
2023/02/26 05:52:07;;;;;;;0.00;0.00;;;;;;;-1.52;95.40;100743.25;4952627;28;20185;-77
2023/02/26 05:54:33;;;;;;;0.10;0.10;;;;;;;-1.55;95.29;100731.13;4952778;28;21138;-80
2023/02/26 05:56:58;;;;;;;0.73;0.70;;;;;;;-1.56;95.59;100742.91;4952692;28;20175;-76
2023/02/26 05:59:24;;;;;;;6.33;0.47;;;;;;;-1.52;94.98;100745.94;4952640;28;20234;-79
2023/02/26 06:01:49;;;;;;;0.00;0.00;;;;;;;-1.52;95.58;100759.34;4952567;28;20185;-76
2023/02/26 06:04:15;;;;;;;0.00;0.00;;;;;;;-1.50;94.81;100762.59;4952002;28;20198;-77
2023/02/26 06:06:40;;;;;;;0.20;0.20;;;;;;;-1.58;95.26;100768.28;4952185;28;20179;-78
2023/02/26 06:09:05;;;;;;;1.10;0.20;;;;;;;-1.60;94.62;100764.97;4952403;28;20259;-75
2023/02/26 06:11:31;;;;;;;0.77;0.30;;;;;;;-1.68;94.47;100766.09;4952455;28;20180;-78
2023/02/26 06:13:56;;;;;;;0.30;0.30;;;;;;;-1.67;94.38;100774.97;4952435;28;20175;-77
2023/02/26 06:16:22;;;;;;;2.47;0.87;;;;;;;-1.74;94.39;100782.22;4952307;28;20517;-78
2023/02/26 06:18:48;;;;;;;0.00;0.00;;;;;;;-1.71;94.38;100785.31;4952459;28;20186;-74
2023/02/26 06:21:15;;;;;;;0.20;0.20;;;;;;;-1.74;94.27;100791.09;4952402;28;20651;-78
2023/02/26 06:23:41;;;;;;;0.27;0.20;;;;;;;-1.75;94.56;100797.47;4952269;28;20263;-77
2023/02/26 06:26:06;;;;;;;2.37;0.33;;;;;;;-1.77;94.53;100804.94;4952095;28;20548;-77
2023/02/26 06:28:32;;;;;;;0.00;0.00;;;;;;;-1.82;94.41;100797.56;4951041;28;20183;-78
2023/02/26 06:30:57;;;;;;;0.77;0.20;;;;;;;-1.85;94.09;100806.03;4952409;28;20182;-77
2023/02/26 06:33:22;;;;;;;1.43;1.03;;;;;;;-1.87;93.98;100816.16;4952292;28;20189;-74
2023/02/26 06:35:49;;;;;;;0.73;0.40;;;;;;;-1.91;94.46;100820.28;4952001;28;20186;-79
2023/02/26 06:38:14;;;;;;;0.13;0.13;;;;;;;-1.89;94.01;100818.22;4952301;28;20206;-76
2023/02/26 06:40:40;;;;;;;0.50;0.40;;;;;;;-1.91;94.50;100816.81;4952183;28;20507;-77
2023/02/26 06:43:05;;;;;;;0.30;0.20;;;;;;;-1.94;94.19;100818.06;4952110;28;20202;-76
2023/02/26 06:45:31;;;;;;;0.50;0.10;;;;;;;-1.95;93.86;100835.16;4951910;28;20317;-77
2023/02/26 06:47:56;;;;;;;0.20;0.20;;;;;;;-1.97;94.36;100836.44;4952099;28;20178;-76
2023/02/26 06:50:21;;;;;;;0.17;0.13;;;;;;;-1.99;93.75;100839.31;4952179;28;20226;-78
2023/02/26 06:52:46;;;;;;;0.80;0.80;;;;;;;-1.99;94.12;100835.84;4952112;28;20514;-79
2023/02/26 06:55:12;;;;;;;0.53;0.30;;;;;;;-2.03;94.01;100845.31;4952192;28;20183;-78
2023/02/26 06:57:37;;;;;;;0.10;0.00;;;;;;;-2.05;93.91;100842.88;4952138;28;20174;-76
2023/02/26 07:00:05;;;;;;;0.43;0.43;;;;;;;-2.08;93.86;100847.84;4952339;28;20182;-78
2023/02/26 07:02:30;;;;;;;0.00;0.00;;;;;;;-2.07;94.44;100855.66;4951923;28;20181;-78
2023/02/26 07:04:55;;;;;;;0.00;0.00;;;;;;;-2.10;93.81;100866.81;4952067;28;20561;-79
2023/02/26 07:07:21;;;;;;;0.20;0.20;;;;;;;-2.13;94.15;100867.25;4951879;28;20210;-80
2023/02/26 07:09:46;;;;;;;0.60;0.33;;;;;;;-2.15;94.60;100872.00;4951996;28;20199;-77
2023/02/26 07:12:14;;;;;;;3.83;0.57;;;;;;;-2.19;94.25;100876.13;4952035;28;20707;-77
2023/02/26 07:14:41;;;;;;;0.00;0.00;;;;;;;-2.16;94.29;100881.88;4951953;28;20179;-77
2023/02/26 07:17:07;;;;;;;4.87;0.10;;;;;;;-2.21;94.36;100884.38;4954452;28;20422;-80
2023/02/26 07:19:32;;;;;;;0.00;0.00;;;;;;;-2.19;94.14;100897.53;4955382;28;20800;-77
2023/02/26 07:21:58;;;;;;;1.43;0.23;;;;;;;-2.21;94.19;100902.28;4955320;28;20258;-81
2023/02/26 07:24:24;;;;;;;0.00;0.00;;;;;;;-2.18;93.54;100912.53;4955951;28;20233;-79
2023/02/26 07:26:49;;;;;;;0.00;0.00;;;;;;;-2.16;93.95;100902.47;4955290;28;20171;-80
2023/02/26 07:29:15;;;;;;;0.00;0.00;;;;;;;-2.12;93.38;100904.50;4955452;28;21020;-78
2023/02/26 07:31:40;;;;;;;0.00;0.00;;;;;;;-2.10;93.44;100915.78;4955343;28;20182;-81
2023/02/26 07:34:05;;;;;;;0.60;0.57;;;;;;;-2.01;93.17;100921.72;4955270;28;20253;-79
2023/02/26 07:36:31;;;;;;;0.10;0.10;;;;;;;-1.86;93.40;100924.91;4954878;28;20199;-76
2023/02/26 07:38:57;;;;;;;0.77;0.53;;;;;;;-1.72;93.21;100928.28;4955227;28;20321;-80
2023/02/26 07:41:22;;;;;;;0.10;0.10;;;;;;;-1.60;92.25;100923.84;4955163;28;20513;-79
2023/02/26 07:43:48;;;;;;;0.97;0.50;;;;;;;-1.58;91.27;100929.81;4957833;28;20190;-73
2023/02/26 07:46:13;;;;;;;0.40;0.10;;;;;;;-1.56;90.52;100930.41;4974166;28;20674;-74
2023/02/26 07:48:40;;;;;;;0.30;0.30;;;;;;;-1.52;90.11;100941.50;4974359;28;20456;-79
2023/02/26 07:51:06;;;;;;;0.27;0.27;;;;;;;-1.47;89.50;100936.31;4974181;28;20637;-77
2023/02/26 07:53:32;;;;;;;0.07;0.07;;;;;;;-1.41;88.72;100940.81;4974272;28;20512;-76
2023/02/26 07:55:58;;;;;;;0.53;0.40;;;;;;;-1.36;88.32;100943.63;4974065;28;20425;-79
2023/02/26 07:58:23;;;;;;;2.23;1.03;;;;;;;-1.40;87.82;100944.31;4973854;28;21036;-77
2023/02/26 08:00:48;;;;;;;0.40;0.40;;;;;;;-1.42;87.85;100947.19;4974173;28;20204;-79
2023/02/26 08:03:14;;;;;;;0.13;0.10;;;;;;;-1.33;87.82;100961.94;4972712;28;20200;-76
2023/02/26 08:05:39;;;;;;;2.00;0.50;;;;;;;-1.28;87.83;100951.41;4973709;28;20208;-79
2023/02/26 08:08:05;;;;;;;2.23;0.67;;;;;;;-1.25;87.54;100966.22;4963311;28;20190;-78
2023/02/26 08:10:30;;;;;;;0.93;0.67;;;;;;;-1.12;87.50;100963.41;4955005;28;20210;-79
2023/02/26 08:12:55;;;;;;;0.00;0.00;;;;;;;-0.95;87.94;100971.69;4954674;28;20175;-80
2023/02/26 08:15:21;;;;;;;3.30;0.40;;;;;;;-0.90;87.60;100974.50;4954444;28;20312;-76
2023/02/26 08:17:46;;;;;;;0.40;0.10;;;;;;;-0.87;86.42;100978.59;4955917;28;20541;-78
2023/02/26 08:20:13;;;;;;;0.20;0.20;;;;;;;-0.96;86.44;100976.22;4956024;28;20236;-70
2023/02/26 08:22:38;;;;;;;23.53;0.40;;;;;;;-1.00;86.27;100976.91;4954794;28;20270;-70
2023/02/26 08:25:04;;;;;;;0.00;0.00;;;;;;;-1.00;86.53;100983.09;4956155;28;20560;-69
2023/02/26 08:27:30;;;;;;;0.20;0.10;;;;;;;-0.97;85.52;100988.00;4954589;28;20242;-69
2023/02/26 08:29:55;;;;;;;0.87;0.87;;;;;;;-0.92;86.11;100992.69;4954523;28;20174;-70
2023/02/26 08:32:21;;;;;;;0.00;0.00;;;;;;;-0.74;86.23;100998.06;4954387;28;20612;-70
2023/02/26 08:34:47;;;;;;;0.00;0.00;;;;;;;-0.63;85.67;100993.81;4954568;28;20715;-70
2023/02/26 08:37:13;;;;;;;0.60;0.60;;;;;;;-0.51;85.58;101008.13;4954672;28;20513;-70
2023/02/26 08:39:38;;;;;;;0.53;0.53;;;;;;;-0.50;84.74;100998.22;4954365;28;20258;-70
2023/02/26 08:42:05;;;;;;;0.00;0.00;;;;;;;-0.48;84.43;100996.94;4955048;28;20198;-69
2023/02/26 08:44:31;;;;;;;1.20;0.30;;;;;;;-0.38;83.79;101012.53;4954024;28;20198;-70
2023/02/26 08:46:57;;;;;;;0.20;0.20;;;;;;;-0.31;83.52;101011.38;4953799;28;20505;-70
2023/02/26 08:49:22;;;;;;;0.10;0.10;;;;;;;-0.42;82.94;101017.53;4953925;28;20301;-72
2023/02/26 08:51:47;;;;;;;0.00;0.00;;;;;;;-0.45;83.18;101025.19;4953825;28;20178;-70
2023/02/26 08:54:13;;;;;;;0.60;0.60;;;;;;;-0.33;83.29;101026.09;4953988;29;20181;-70
2023/02/26 08:56:38;;;;;;;0.00;0.00;;;;;;;-0.24;82.90;101034.66;4954020;28;20627;-69
2023/02/26 08:59:04;;;;;;;0.20;0.10;;;;;;;-0.26;82.50;101031.38;4953832;28;20182;-70
2023/02/26 09:01:29;;;;;;;0.07;0.07;;;;;;;-0.19;82.56;101032.94;4953639;28;20175;-70
2023/02/26 09:03:54;;;;;;;0.10;0.10;;;;;;;-0.28;82.01;101042.34;4953600;28;20185;-70
2023/02/26 09:06:19;;;;;;;0.00;0.00;;;;;;;-0.24;81.87;101050.78;4953595;28;20210;-70
2023/02/26 09:08:45;;;;;;;0.00;0.00;;;;;;;-0.08;82.00;101044.78;4959892;28;20212;-70
2023/02/26 09:11:11;;;;;;;3.67;2.20;;;;;;;-0.05;81.59;101047.84;4972780;28;20233;-70
2023/02/26 09:13:36;;;;;;;0.00;0.00;;;;;;;0.05;81.67;101055.38;4972755;28;20177;-71
2023/02/26 09:16:02;;;;;;;1.20;0.43;;;;;;;0.02;80.73;101055.00;4972618;28;20182;-70
2023/02/26 09:18:27;;;;;;;0.47;0.43;;;;;;;-0.05;80.43;101055.06;4972851;28;20174;-70
2023/02/26 09:20:52;;;;;;;0.17;0.10;;;;;;;-0.04;80.47;101052.16;4972766;28;20201;-70
2023/02/26 09:23:18;;;;;;;0.27;0.27;;;;;;;0.09;80.47;101061.91;4972592;28;20173;-70
2023/02/26 09:25:43;;;;;;;2.27;1.00;;;;;;;0.03;79.86;101053.94;4972331;28;20236;-70
2023/02/26 09:28:08;;;;;;;0.17;0.17;;;;;;;0.14;80.11;101066.59;4972496;28;20181;-70
2023/02/26 09:30:34;;;;;;;0.00;0.00;;;;;;;0.33;79.89;101068.22;4972597;28;20269;-70
2023/02/26 09:32:59;;;;;;;0.40;0.40;;;;;;;0.19;79.61;101064.06;4972333;28;20264;-69
2023/02/26 09:35:24;;;;;;;0.10;0.10;;;;;;;0.10;80.06;101071.59;4972209;28;20201;-73
2023/02/26 09:37:50;;;;;;;0.80;0.67;;;;;;;0.37;80.31;101076.63;4972494;28;20183;-70
2023/02/26 09:40:41;;;;;;;0.00;0.00;;;;;;;0.42;79.42;101076.75;4971453;28;20201;-71
2023/02/26 09:43:24;;;;;;;0.30;0.30;;;;;;;0.46;78.38;101067.19;4966532;28;20197;-70
2023/02/26 09:45:53;;;;;;;0.30;0.30;;;;;;;0.59;77.46;101075.91;4952494;28;20478;-70
2023/02/26 09:48:21;;;;;;;0.60;0.60;;;;;;;0.74;77.32;101075.47;4953003;28;20449;-71
2023/02/26 09:50:56;;;;;;;0.30;0.30;;;;;;;0.57;75.58;101074.47;4952734;28;20422;-70
2023/02/26 09:53:26;;;;;;;0.03;0.03;;;;;;;0.66;76.20;101072.28;4952929;28;20217;-70
2023/02/26 09:55:55;;;;;;;1.30;0.93;;;;;;;0.62;75.67;101066.53;4952503;28;20185;-70
2023/02/26 09:58:29;;;;;;;0.90;0.27;;;;;;;0.58;74.99;101065.38;4952776;28;20760;-70
2023/02/26 10:00:58;;;;;;;0.90;0.57;;;;;;;0.70;74.76;101068.88;4952393;28;20173;-70
2023/02/26 10:03:26;;;;;;;0.67;0.67;;;;;;;0.65;74.69;101076.00;4952355;28;20190;-71
2023/02/26 10:06:07;;;;;;;1.23;0.80;;;;;;;0.59;74.47;101081.28;4952081;28;20216;-70
2023/02/26 10:08:49;;;;;;;0.17;0.17;;;;;;;0.62;74.17;101079.16;4952581;28;20197;-70
2023/02/26 10:11:46;;;;;;;0.00;0.00;;;;;;;0.81;74.11;101081.53;4952804;28;20182;-70
2023/02/26 10:14:19;;;;;;;0.00;0.00;;;;;;;1.03;74.41;101089.06;4952471;28;20188;-75
2023/02/26 10:16:50;;;;;;;0.20;0.20;;;;;;;1.13;74.36;101090.13;4952592;28;20610;-70
2023/02/26 10:19:19;;;;;;;0.00;0.00;;;;;;;1.17;73.59;101087.81;4952466;28;20170;-70
2023/02/26 10:21:53;;;;;;;0.83;0.67;;;;;;;1.12;73.18;101093.03;4952445;28;20194;-71
2023/02/26 10:24:23;;;;;;;3.20;1.70;;;;;;;1.30;73.31;101109.09;4950834;28;20434;-71
2023/02/26 10:26:57;;;;;;;0.00;0.00;;;;;;;1.06;72.59;101091.28;4950950;28;20228;-71
2023/02/26 10:29:39;;;;;;;0.10;0.10;;;;;;;0.81;72.47;101095.00;4952290;28;20171;-71
2023/02/26 10:32:27;;;;;;;0.67;0.67;;;;;;;0.83;72.00;101095.56;4952328;28;20210;-70
2023/02/26 10:34:59;;;;;;;0.00;0.00;;;;;;;0.92;72.32;101101.44;4952249;28;20277;-70
2023/02/26 10:37:51;;;;;;;0.03;0.03;;;;;;;1.04;71.73;101096.09;4952058;28;20282;-70
2023/02/26 10:40:23;;;;;;;0.60;0.30;;;;;;;1.03;70.91;101087.19;4952767;28;20179;-70
2023/02/26 10:42:57;;;;;;;0.40;0.30;;;;;;;1.18;70.71;101094.81;4952253;28;20170;-72
2023/02/26 10:45:46;;;;;;;0.83;0.30;;;;;;;1.25;70.58;101100.88;4952036;28;20221;-72
2023/02/26 10:48:49;;;;;;;0.00;0.00;;;;;;;1.17;69.69;101095.88;4951980;28;20286;-70
2023/02/26 10:51:21;;;;;;;0.20;0.20;;;;;;;1.38;70.31;101107.91;4953586;28;20174;-71
2023/02/26 10:53:59;;;;;;;0.20;0.20;;;;;;;1.33;69.68;101107.81;4956127;28;20213;-77
2023/02/26 10:56:29;;;;;;;0.00;0.00;;;;;;;1.27;70.52;101112.25;4955746;28;20186;-73
2023/02/26 10:58:54;;;;;;;0.00;0.00;;;;;;;1.31;70.41;101110.75;4955949;29;20186;-71
2023/02/26 11:01:23;;;;;;;0.00;0.00;;;;;;;1.35;68.26;101108.41;4955914;28;20171;-70
2023/02/26 11:03:55;;;;;;;6.60;0.63;;;;;;;1.32;65.83;101088.16;4955820;29;20197;-71
2023/02/26 11:06:29;;;;;;;0.17;0.17;;;;;;;1.41;65.49;101097.50;4955717;28;20552;-72
2023/02/26 11:08:58;;;;;;;0.00;0.00;;;;;;;1.57;64.77;101101.34;4955789;28;20178;-71
2023/02/26 11:11:40;;;;;;;0.30;0.10;;;;;;;1.57;65.85;101114.81;4955715;28;20186;-70
2023/02/26 11:14:07;;;;;;;0.00;0.00;;;;;;;1.44;63.68;101096.19;4955852;28;20190;-71
2023/02/26 11:16:33;;;;;;;0.10;0.10;;;;;;;1.55;61.78;101092.69;4955520;28;20170;-71
2023/02/26 11:18:59;;;;;;;0.00;0.00;;;;;;;1.55;60.83;101086.47;4955734;28;20698;-71
2023/02/26 11:21:38;;;;;;;0.10;0.10;;;;;;;1.63;62.17;101110.38;4955549;28;20570;-80
2023/02/26 11:24:10;;;;;;;0.20;0.10;;;;;;;1.63;62.47;101107.69;4955535;28;20174;-71
2023/02/26 11:26:37;;;;;;;2.93;0.30;;;;;;;1.73;62.09;101108.69;4955302;28;20166;-70
2023/02/26 11:29:04;;;;;;;0.00;0.00;;;;;;;1.84;62.68;101109.75;4955537;28;20206;-72
2023/02/26 11:31:31;;;;;;;0.00;0.00;;;;;;;1.73;61.58;101111.41;4955429;28;20171;-72
2023/02/26 11:34:04;;;;;;;0.30;0.10;;;;;;;1.68;60.23;101103.22;4955225;28;20175;-72
2023/02/26 11:36:32;;;;;;;0.00;0.00;;;;;;;1.77;59.85;101107.19;4954833;28;20182;-71
2023/02/26 11:39:06;;;;;;;0.10;0.10;;;;;;;1.78;59.27;101095.38;4955217;28;20174;-71